sensor_id;sensor_type;location;lat;lon;timestamp;P1;durP1;ratioP1;P2;durP2;ratioP2
62832;SDS011;48891;49.220;6.920;2023-04-06T00:01:44;34.50;;;23.02;;
62832;SDS011;48891;49.220;6.920;2023-04-06T00:04:09;32.28;;;22.35;;
62832;SDS011;48891;49.220;6.920;2023-04-06T00:06:34;37.35;;;24.23;;
62832;SDS011;48891;49.220;6.920;2023-04-06T00:08:59;35.28;;;22.88;;
62832;SDS011;48891;49.220;6.920;2023-04-06T00:11:24;34.33;;;22.53;;
62832;SDS011;48891;49.220;6.920;2023-04-06T00:13:49;32.40;;;22.33;;
62832;SDS011;48891;49.220;6.920;2023-04-06T00:16:14;33.40;;;22.40;;
62832;SDS011;48891;49.220;6.920;2023-04-06T00:18:40;31.88;;;21.17;;
62832;SDS011;48891;49.220;6.920;2023-04-06T00:21:05;31.88;;;21.67;;
62832;SDS011;48891;49.220;6.920;2023-04-06T00:23:30;35.37;;;22.50;;
62832;SDS011;48891;49.220;6.920;2023-04-06T00:25:55;32.17;;;21.10;;
62832;SDS011;48891;49.220;6.920;2023-04-06T00:28:20;31.75;;;21.02;;
62832;SDS011;48891;49.220;6.920;2023-04-06T00:30:46;30.45;;;20.25;;
62832;SDS011;48891;49.220;6.920;2023-04-06T00:33:11;32.85;;;21.52;;
62832;SDS011;48891;49.220;6.920;2023-04-06T00:35:36;29.47;;;19.30;;
62832;SDS011;48891;49.220;6.920;2023-04-06T00:38:01;31.67;;;19.92;;
62832;SDS011;48891;49.220;6.920;2023-04-06T00:40:26;30.37;;;20.63;;
62832;SDS011;48891;49.220;6.920;2023-04-06T00:42:51;31.20;;;20.05;;
62832;SDS011;48891;49.220;6.920;2023-04-06T00:45:16;31.50;;;20.10;;
62832;SDS011;48891;49.220;6.920;2023-04-06T00:47:42;30.83;;;19.13;;
62832;SDS011;48891;49.220;6.920;2023-04-06T00:50:07;29.33;;;19.40;;
62832;SDS011;48891;49.220;6.920;2023-04-06T00:52:33;27.35;;;18.35;;
62832;SDS011;48891;49.220;6.920;2023-04-06T00:54:58;31.88;;;19.98;;
62832;SDS011;48891;49.220;6.920;2023-04-06T00:57:23;28.05;;;19.05;;
62832;SDS011;48891;49.220;6.920;2023-04-06T00:59:48;28.20;;;18.33;;
62832;SDS011;48891;49.220;6.920;2023-04-06T01:02:13;29.17;;;19.23;;
62832;SDS011;48891;49.220;6.920;2023-04-06T01:04:38;28.85;;;19.45;;
62832;SDS011;48891;49.220;6.920;2023-04-06T01:07:04;28.48;;;19.08;;
62832;SDS011;48891;49.220;6.920;2023-04-06T01:09:29;27.92;;;17.95;;
62832;SDS011;48891;49.220;6.920;2023-04-06T01:11:54;28.73;;;18.50;;
62832;SDS011;48891;49.220;6.920;2023-04-06T01:14:19;27.52;;;17.70;;
62832;SDS011;48891;49.220;6.920;2023-04-06T01:16:45;26.73;;;17.00;;
62832;SDS011;48891;49.220;6.920;2023-04-06T01:19:10;26.48;;;16.67;;
62832;SDS011;48891;49.220;6.920;2023-04-06T01:21:36;26.90;;;17.92;;
62832;SDS011;48891;49.220;6.920;2023-04-06T01:24:01;25.55;;;16.55;;
62832;SDS011;48891;49.220;6.920;2023-04-06T01:26:26;22.23;;;15.65;;
62832;SDS011;48891;49.220;6.920;2023-04-06T01:28:52;24.48;;;16.45;;
62832;SDS011;48891;49.220;6.920;2023-04-06T01:31:17;25.17;;;16.20;;
62832;SDS011;48891;49.220;6.920;2023-04-06T01:33:42;25.77;;;16.48;;
62832;SDS011;48891;49.220;6.920;2023-04-06T01:36:07;25.05;;;15.80;;
62832;SDS011;48891;49.220;6.920;2023-04-06T01:38:32;22.97;;;16.17;;
62832;SDS011;48891;49.220;6.920;2023-04-06T01:40:57;23.23;;;15.90;;
62832;SDS011;48891;49.220;6.920;2023-04-06T01:43:23;23.40;;;16.33;;
62832;SDS011;48891;49.220;6.920;2023-04-06T01:45:48;23.80;;;15.95;;
62832;SDS011;48891;49.220;6.920;2023-04-06T01:48:13;20.40;;;14.70;;
62832;SDS011;48891;49.220;6.920;2023-04-06T01:50:38;22.17;;;15.10;;
62832;SDS011;48891;49.220;6.920;2023-04-06T01:53:03;23.17;;;15.32;;
62832;SDS011;48891;49.220;6.920;2023-04-06T01:55:28;22.80;;;15.55;;
62832;SDS011;48891;49.220;6.920;2023-04-06T01:57:53;21.52;;;14.52;;
62832;SDS011;48891;49.220;6.920;2023-04-06T02:00:19;23.05;;;14.98;;
62832;SDS011;48891;49.220;6.920;2023-04-06T02:02:44;23.08;;;13.70;;
62832;SDS011;48891;49.220;6.920;2023-04-06T02:05:09;21.00;;;13.70;;
62832;SDS011;48891;49.220;6.920;2023-04-06T02:07:34;22.53;;;15.10;;
62832;SDS011;48891;49.220;6.920;2023-04-06T02:09:59;20.90;;;13.65;;
62832;SDS011;48891;49.220;6.920;2023-04-06T02:12:24;19.33;;;13.13;;
62832;SDS011;48891;49.220;6.920;2023-04-06T02:14:49;20.10;;;13.60;;
62832;SDS011;48891;49.220;6.920;2023-04-06T02:17:14;22.00;;;14.17;;
62832;SDS011;48891;49.220;6.920;2023-04-06T02:19:40;19.83;;;13.55;;
62832;SDS011;48891;49.220;6.920;2023-04-06T02:22:05;22.83;;;13.90;;
62832;SDS011;48891;49.220;6.920;2023-04-06T02:24:30;20.27;;;14.20;;
62832;SDS011;48891;49.220;6.920;2023-04-06T02:26:55;20.00;;;13.05;;
62832;SDS011;48891;49.220;6.920;2023-04-06T02:29:20;19.58;;;13.43;;
62832;SDS011;48891;49.220;6.920;2023-04-06T02:31:45;20.23;;;14.23;;
62832;SDS011;48891;49.220;6.920;2023-04-06T02:34:10;19.63;;;13.20;;
62832;SDS011;48891;49.220;6.920;2023-04-06T02:36:35;22.88;;;13.88;;
62832;SDS011;48891;49.220;6.920;2023-04-06T02:39:00;20.55;;;13.68;;
62832;SDS011;48891;49.220;6.920;2023-04-06T02:41:26;20.95;;;13.57;;
62832;SDS011;48891;49.220;6.920;2023-04-06T02:43:51;17.77;;;11.85;;
62832;SDS011;48891;49.220;6.920;2023-04-06T02:46:16;17.65;;;11.50;;
62832;SDS011;48891;49.220;6.920;2023-04-06T02:48:41;17.23;;;11.73;;
62832;SDS011;48891;49.220;6.920;2023-04-06T02:51:06;16.83;;;11.65;;
62832;SDS011;48891;49.220;6.920;2023-04-06T02:53:31;19.10;;;11.82;;
62832;SDS011;48891;49.220;6.920;2023-04-06T02:55:56;17.55;;;11.60;;
62832;SDS011;48891;49.220;6.920;2023-04-06T02:58:21;17.00;;;11.30;;
62832;SDS011;48891;49.220;6.920;2023-04-06T03:00:46;18.10;;;11.25;;
62832;SDS011;48891;49.220;6.920;2023-04-06T03:03:12;18.83;;;12.15;;
62832;SDS011;48891;49.220;6.920;2023-04-06T03:05:37;17.73;;;12.52;;
62832;SDS011;48891;49.220;6.920;2023-04-06T03:08:02;17.08;;;11.50;;
62832;SDS011;48891;49.220;6.920;2023-04-06T03:10:27;15.27;;;11.03;;
62832;SDS011;48891;49.220;6.920;2023-04-06T03:12:52;16.77;;;11.52;;
62832;SDS011;48891;49.220;6.920;2023-04-06T03:15:17;17.80;;;11.95;;
62832;SDS011;48891;49.220;6.920;2023-04-06T03:17:42;15.00;;;10.65;;
62832;SDS011;48891;49.220;6.920;2023-04-06T03:20:08;16.73;;;11.48;;
62832;SDS011;48891;49.220;6.920;2023-04-06T03:22:33;14.30;;;10.98;;
62832;SDS011;48891;49.220;6.920;2023-04-06T03:24:58;15.73;;;10.85;;
62832;SDS011;48891;49.220;6.920;2023-04-06T03:27:23;16.88;;;11.20;;
62832;SDS011;48891;49.220;6.920;2023-04-06T03:29:48;16.92;;;10.80;;
62832;SDS011;48891;49.220;6.920;2023-04-06T03:32:13;15.97;;;10.90;;
62832;SDS011;48891;49.220;6.920;2023-04-06T03:34:39;16.05;;;10.88;;
62832;SDS011;48891;49.220;6.920;2023-04-06T03:37:04;13.83;;;9.90;;
62832;SDS011;48891;49.220;6.920;2023-04-06T03:39:29;15.25;;;10.15;;
62832;SDS011;48891;49.220;6.920;2023-04-06T03:41:54;14.40;;;9.77;;
62832;SDS011;48891;49.220;6.920;2023-04-06T03:44:19;14.13;;;9.93;;
62832;SDS011;48891;49.220;6.920;2023-04-06T03:46:44;15.77;;;10.38;;
62832;SDS011;48891;49.220;6.920;2023-04-06T03:49:09;15.10;;;9.60;;
62832;SDS011;48891;49.220;6.920;2023-04-06T03:51:34;14.75;;;10.18;;
62832;SDS011;48891;49.220;6.920;2023-04-06T03:54:00;16.33;;;10.43;;
62832;SDS011;48891;49.220;6.920;2023-04-06T03:56:25;15.40;;;10.02;;
62832;SDS011;48891;49.220;6.920;2023-04-06T03:58:50;13.43;;;9.10;;
62832;SDS011;48891;49.220;6.920;2023-04-06T04:01:15;14.20;;;9.60;;
62832;SDS011;48891;49.220;6.920;2023-04-06T04:03:40;13.23;;;9.18;;
62832;SDS011;48891;49.220;6.920;2023-04-06T04:06:05;14.00;;;9.25;;
62832;SDS011;48891;49.220;6.920;2023-04-06T04:08:30;13.23;;;9.25;;
62832;SDS011;48891;49.220;6.920;2023-04-06T04:10:55;11.77;;;8.77;;
62832;SDS011;48891;49.220;6.920;2023-04-06T04:13:20;12.50;;;8.55;;
62832;SDS011;48891;49.220;6.920;2023-04-06T04:15:45;11.80;;;8.80;;
62832;SDS011;48891;49.220;6.920;2023-04-06T04:18:11;13.07;;;8.65;;
62832;SDS011;48891;49.220;6.920;2023-04-06T04:20:36;12.65;;;9.32;;
62832;SDS011;48891;49.220;6.920;2023-04-06T04:23:01;13.52;;;9.00;;
62832;SDS011;48891;49.220;6.920;2023-04-06T04:25:26;11.60;;;8.27;;
62832;SDS011;48891;49.220;6.920;2023-04-06T04:27:51;11.88;;;8.52;;
62832;SDS011;48891;49.220;6.920;2023-04-06T04:30:16;12.82;;;8.20;;
62832;SDS011;48891;49.220;6.920;2023-04-06T04:32:41;13.83;;;9.23;;
62832;SDS011;48891;49.220;6.920;2023-04-06T04:35:07;12.52;;;8.60;;
62832;SDS011;48891;49.220;6.920;2023-04-06T04:37:32;12.20;;;8.65;;
62832;SDS011;48891;49.220;6.920;2023-04-06T04:39:57;13.43;;;8.63;;
62832;SDS011;48891;49.220;6.920;2023-04-06T04:42:22;12.57;;;8.45;;
62832;SDS011;48891;49.220;6.920;2023-04-06T04:44:47;11.80;;;8.10;;
62832;SDS011;48891;49.220;6.920;2023-04-06T04:47:12;11.90;;;7.65;;
62832;SDS011;48891;49.220;6.920;2023-04-06T04:49:37;11.45;;;7.90;;
62832;SDS011;48891;49.220;6.920;2023-04-06T04:52:03;10.73;;;7.65;;
62832;SDS011;48891;49.220;6.920;2023-04-06T04:54:28;11.18;;;8.27;;
62832;SDS011;48891;49.220;6.920;2023-04-06T04:56:53;11.90;;;8.25;;
62832;SDS011;48891;49.220;6.920;2023-04-06T04:59:18;12.73;;;7.93;;
62832;SDS011;48891;49.220;6.920;2023-04-06T05:01:43;11.77;;;8.52;;
62832;SDS011;48891;49.220;6.920;2023-04-06T05:04:08;11.52;;;8.30;;
62832;SDS011;48891;49.220;6.920;2023-04-06T05:06:33;12.43;;;7.60;;
62832;SDS011;48891;49.220;6.920;2023-04-06T05:08:58;11.70;;;7.97;;
62832;SDS011;48891;49.220;6.920;2023-04-06T05:11:23;11.85;;;7.35;;
62832;SDS011;48891;49.220;6.920;2023-04-06T05:13:49;10.67;;;7.60;;
62832;SDS011;48891;49.220;6.920;2023-04-06T05:16:14;11.83;;;8.00;;
62832;SDS011;48891;49.220;6.920;2023-04-06T05:18:39;12.45;;;7.80;;
62832;SDS011;48891;49.220;6.920;2023-04-06T05:21:04;10.48;;;7.45;;
62832;SDS011;48891;49.220;6.920;2023-04-06T05:23:29;12.23;;;7.63;;
62832;SDS011;48891;49.220;6.920;2023-04-06T05:25:54;9.77;;;7.32;;
62832;SDS011;48891;49.220;6.920;2023-04-06T05:28:19;12.25;;;7.68;;
62832;SDS011;48891;49.220;6.920;2023-04-06T05:30:45;12.10;;;8.17;;
62832;SDS011;48891;49.220;6.920;2023-04-06T05:33:10;11.43;;;7.93;;
62832;SDS011;48891;49.220;6.920;2023-04-06T05:35:35;10.18;;;7.28;;
62832;SDS011;48891;49.220;6.920;2023-04-06T05:38:00;10.20;;;7.00;;
62832;SDS011;48891;49.220;6.920;2023-04-06T05:40:25;10.30;;;7.40;;
62832;SDS011;48891;49.220;6.920;2023-04-06T05:42:50;11.87;;;7.50;;
62832;SDS011;48891;49.220;6.920;2023-04-06T05:45:16;10.25;;;7.30;;
62832;SDS011;48891;49.220;6.920;2023-04-06T05:47:41;10.27;;;7.80;;
62832;SDS011;48891;49.220;6.920;2023-04-06T05:50:06;11.52;;;8.43;;
62832;SDS011;48891;49.220;6.920;2023-04-06T05:52:31;10.70;;;7.32;;
62832;SDS011;48891;49.220;6.920;2023-04-06T05:54:56;12.52;;;7.90;;
62832;SDS011;48891;49.220;6.920;2023-04-06T05:57:22;12.25;;;8.10;;
62832;SDS011;48891;49.220;6.920;2023-04-06T05:59:47;11.82;;;8.65;;
62832;SDS011;48891;49.220;6.920;2023-04-06T06:02:12;11.60;;;8.13;;
62832;SDS011;48891;49.220;6.920;2023-04-06T06:04:37;12.63;;;8.25;;
62832;SDS011;48891;49.220;6.920;2023-04-06T06:07:02;12.87;;;8.57;;
62832;SDS011;48891;49.220;6.920;2023-04-06T06:09:27;12.73;;;8.23;;
62832;SDS011;48891;49.220;6.920;2023-04-06T06:11:52;11.07;;;7.97;;
62832;SDS011;48891;49.220;6.920;2023-04-06T06:14:17;12.70;;;8.52;;
62832;SDS011;48891;49.220;6.920;2023-04-06T06:16:43;12.25;;;8.75;;
62832;SDS011;48891;49.220;6.920;2023-04-06T06:19:08;12.35;;;8.65;;
62832;SDS011;48891;49.220;6.920;2023-04-06T06:21:33;11.18;;;8.75;;
62832;SDS011;48891;49.220;6.920;2023-04-06T06:23:58;12.00;;;8.48;;
62832;SDS011;48891;49.220;6.920;2023-04-06T06:26:23;13.47;;;9.10;;
62832;SDS011;48891;49.220;6.920;2023-04-06T06:28:48;13.60;;;9.75;;
62832;SDS011;48891;49.220;6.920;2023-04-06T06:31:13;13.13;;;8.70;;
62832;SDS011;48891;49.220;6.920;2023-04-06T06:33:38;11.45;;;8.70;;
62832;SDS011;48891;49.220;6.920;2023-04-06T06:36:04;13.57;;;9.10;;
62832;SDS011;48891;49.220;6.920;2023-04-06T06:38:29;11.50;;;9.03;;
62832;SDS011;48891;49.220;6.920;2023-04-06T06:40:54;13.13;;;8.90;;
62832;SDS011;48891;49.220;6.920;2023-04-06T06:43:19;13.10;;;9.43;;
62832;SDS011;48891;49.220;6.920;2023-04-06T06:45:44;14.95;;;9.75;;
62832;SDS011;48891;49.220;6.920;2023-04-06T06:48:09;12.98;;;9.48;;
62832;SDS011;48891;49.220;6.920;2023-04-06T06:50:34;13.35;;;9.18;;
62832;SDS011;48891;49.220;6.920;2023-04-06T06:52:59;13.15;;;10.02;;
62832;SDS011;48891;49.220;6.920;2023-04-06T06:55:25;12.77;;;9.43;;
62832;SDS011;48891;49.220;6.920;2023-04-06T06:57:50;13.17;;;9.80;;
62832;SDS011;48891;49.220;6.920;2023-04-06T07:00:15;12.70;;;9.38;;
62832;SDS011;48891;49.220;6.920;2023-04-06T07:02:40;14.73;;;10.48;;
62832;SDS011;48891;49.220;6.920;2023-04-06T07:05:06;15.93;;;10.57;;
62832;SDS011;48891;49.220;6.920;2023-04-06T07:07:34;13.73;;;10.23;;
62832;SDS011;48891;49.220;6.920;2023-04-06T07:10:00;14.48;;;9.77;;
62832;SDS011;48891;49.220;6.920;2023-04-06T07:12:25;15.80;;;10.35;;
62832;SDS011;48891;49.220;6.920;2023-04-06T07:14:50;15.07;;;10.57;;
62832;SDS011;48891;49.220;6.920;2023-04-06T07:17:15;12.57;;;10.13;;
62832;SDS011;48891;49.220;6.920;2023-04-06T07:19:40;14.90;;;9.90;;
62832;SDS011;48891;49.220;6.920;2023-04-06T07:22:05;13.93;;;10.02;;
62832;SDS011;48891;49.220;6.920;2023-04-06T07:24:31;14.67;;;11.10;;
62832;SDS011;48891;49.220;6.920;2023-04-06T07:26:57;13.80;;;10.38;;
62832;SDS011;48891;49.220;6.920;2023-04-06T07:29:22;13.57;;;11.15;;
62832;SDS011;48891;49.220;6.920;2023-04-06T07:31:47;14.18;;;10.20;;
62832;SDS011;48891;49.220;6.920;2023-04-06T07:34:12;15.55;;;10.88;;
62832;SDS011;48891;49.220;6.920;2023-04-06T07:36:37;15.30;;;10.93;;
62832;SDS011;48891;49.220;6.920;2023-04-06T07:39:02;15.68;;;10.88;;
62832;SDS011;48891;49.220;6.920;2023-04-06T07:41:27;14.63;;;10.25;;
62832;SDS011;48891;49.220;6.920;2023-04-06T07:43:53;14.77;;;10.32;;
62832;SDS011;48891;49.220;6.920;2023-04-06T07:46:18;15.02;;;10.70;;
62832;SDS011;48891;49.220;6.920;2023-04-06T07:48:43;16.83;;;11.23;;
62832;SDS011;48891;49.220;6.920;2023-04-06T07:51:08;14.68;;;10.38;;
62832;SDS011;48891;49.220;6.920;2023-04-06T07:53:33;14.65;;;10.50;;
62832;SDS011;48891;49.220;6.920;2023-04-06T07:55:58;15.10;;;10.52;;
62832;SDS011;48891;49.220;6.920;2023-04-06T07:58:23;15.60;;;10.32;;
62832;SDS011;48891;49.220;6.920;2023-04-06T08:00:49;16.73;;;11.53;;
62832;SDS011;48891;49.220;6.920;2023-04-06T08:03:14;15.13;;;11.07;;
62832;SDS011;48891;49.220;6.920;2023-04-06T08:05:39;14.50;;;11.00;;
62832;SDS011;48891;49.220;6.920;2023-04-06T08:08:04;13.60;;;11.02;;
62832;SDS011;48891;49.220;6.920;2023-04-06T08:10:29;13.82;;;10.77;;
62832;SDS011;48891;49.220;6.920;2023-04-06T08:12:54;14.20;;;10.65;;
62832;SDS011;48891;49.220;6.920;2023-04-06T08:15:19;13.48;;;10.73;;
62832;SDS011;48891;49.220;6.920;2023-04-06T08:17:44;15.88;;;10.55;;
62832;SDS011;48891;49.220;6.920;2023-04-06T08:20:10;16.48;;;10.93;;
62832;SDS011;48891;49.220;6.920;2023-04-06T08:22:35;13.77;;;9.77;;
62832;SDS011;48891;49.220;6.920;2023-04-06T08:25:00;14.77;;;9.88;;
62832;SDS011;48891;49.220;6.920;2023-04-06T08:27:25;13.48;;;10.18;;
62832;SDS011;48891;49.220;6.920;2023-04-06T08:29:50;14.52;;;10.20;;
62832;SDS011;48891;49.220;6.920;2023-04-06T08:32:15;16.08;;;10.40;;
62832;SDS011;48891;49.220;6.920;2023-04-06T08:34:40;14.25;;;10.35;;
62832;SDS011;48891;49.220;6.920;2023-04-06T08:37:06;15.35;;;10.60;;
62832;SDS011;48891;49.220;6.920;2023-04-06T08:39:31;14.25;;;10.82;;
62832;SDS011;48891;49.220;6.920;2023-04-06T08:41:56;13.40;;;10.27;;
62832;SDS011;48891;49.220;6.920;2023-04-06T08:44:21;14.63;;;10.60;;
62832;SDS011;48891;49.220;6.920;2023-04-06T08:46:46;14.38;;;10.30;;
62832;SDS011;48891;49.220;6.920;2023-04-06T08:49:11;14.33;;;10.80;;
62832;SDS011;48891;49.220;6.920;2023-04-06T08:51:37;13.43;;;10.30;;
62832;SDS011;48891;49.220;6.920;2023-04-06T08:54:02;13.95;;;10.63;;
62832;SDS011;48891;49.220;6.920;2023-04-06T08:56:27;15.10;;;10.73;;
62832;SDS011;48891;49.220;6.920;2023-04-06T08:58:53;16.73;;;10.93;;
62832;SDS011;48891;49.220;6.920;2023-04-06T09:01:20;13.15;;;10.32;;
62832;SDS011;48891;49.220;6.920;2023-04-06T09:03:46;14.07;;;10.30;;
62832;SDS011;48891;49.220;6.920;2023-04-06T09:06:14;14.15;;;10.38;;
62832;SDS011;48891;49.220;6.920;2023-04-06T09:08:40;13.10;;;10.15;;
62832;SDS011;48891;49.220;6.920;2023-04-06T09:11:05;12.73;;;10.10;;
62832;SDS011;48891;49.220;6.920;2023-04-06T09:13:30;15.95;;;10.13;;
62832;SDS011;48891;49.220;6.920;2023-04-06T09:16:02;13.88;;;9.85;;
62832;SDS011;48891;49.220;6.920;2023-04-06T09:18:30;13.00;;;9.95;;
62832;SDS011;48891;49.220;6.920;2023-04-06T09:21:03;13.15;;;9.73;;
62832;SDS011;48891;49.220;6.920;2023-04-06T09:23:28;13.60;;;9.98;;
62832;SDS011;48891;49.220;6.920;2023-04-06T09:28:40;12.20;;;10.13;;
62832;SDS011;48891;49.220;6.920;2023-04-06T09:31:06;13.88;;;9.68;;
62832;SDS011;48891;49.220;6.920;2023-04-06T09:33:31;11.15;;;8.88;;
62832;SDS011;48891;49.220;6.920;2023-04-06T09:35:56;12.77;;;9.98;;
62832;SDS011;48891;49.220;6.920;2023-04-06T09:38:21;13.50;;;10.05;;
62832;SDS011;48891;49.220;6.920;2023-04-06T09:40:50;12.82;;;9.75;;
62832;SDS011;48891;49.220;6.920;2023-04-06T09:43:23;13.15;;;10.18;;
62832;SDS011;48891;49.220;6.920;2023-04-06T09:45:48;12.98;;;9.38;;
62832;SDS011;48891;49.220;6.920;2023-04-06T09:48:13;12.55;;;9.35;;
62832;SDS011;48891;49.220;6.920;2023-04-06T09:50:38;11.73;;;9.60;;
62832;SDS011;48891;49.220;6.920;2023-04-06T09:53:04;12.50;;;10.02;;
62832;SDS011;48891;49.220;6.920;2023-04-06T09:56:03;12.38;;;9.18;;
62832;SDS011;48891;49.220;6.920;2023-04-06T09:58:21;14.90;;;9.57;;
62832;SDS011;48891;49.220;6.920;2023-04-06T10:05:38;11.93;;;9.35;;
62832;SDS011;48891;49.220;6.920;2023-04-06T10:08:08;12.73;;;9.68;;
62832;SDS011;48891;49.220;6.920;2023-04-06T10:10:34;11.77;;;9.30;;
62832;SDS011;48891;49.220;6.920;2023-04-06T10:12:59;12.10;;;9.15;;
62832;SDS011;48891;49.220;6.920;2023-04-06T10:15:24;11.32;;;9.40;;
62832;SDS011;48891;49.220;6.920;2023-04-06T10:17:49;13.10;;;9.40;;
62832;SDS011;48891;49.220;6.920;2023-04-06T10:20:17;11.52;;;9.02;;
62832;SDS011;48891;49.220;6.920;2023-04-06T10:22:51;11.80;;;9.00;;
62832;SDS011;48891;49.220;6.920;2023-04-06T10:25:26;11.57;;;9.00;;
62832;SDS011;48891;49.220;6.920;2023-04-06T10:27:58;13.35;;;9.23;;
62832;SDS011;48891;49.220;6.920;2023-04-06T10:30:23;15.40;;;9.65;;
62832;SDS011;48891;49.220;6.920;2023-04-06T10:32:48;11.20;;;8.90;;
62832;SDS011;48891;49.220;6.920;2023-04-06T10:35:13;12.88;;;9.32;;
62832;SDS011;48891;49.220;6.920;2023-04-06T10:37:50;10.50;;;8.27;;
62832;SDS011;48891;49.220;6.920;2023-04-06T10:40:19;11.57;;;8.95;;
62832;SDS011;48891;49.220;6.920;2023-04-06T10:42:44;11.18;;;8.60;;
62832;SDS011;48891;49.220;6.920;2023-04-06T10:45:18;12.30;;;9.57;;
62832;SDS011;48891;49.220;6.920;2023-04-06T10:47:43;11.90;;;8.90;;
62832;SDS011;48891;49.220;6.920;2023-04-06T10:50:09;11.30;;;8.80;;
62832;SDS011;48891;49.220;6.920;2023-04-06T10:52:35;12.13;;;8.82;;
62832;SDS011;48891;49.220;6.920;2023-04-06T10:55:00;11.13;;;9.05;;
62832;SDS011;48891;49.220;6.920;2023-04-06T10:57:28;11.73;;;9.02;;
62832;SDS011;48891;49.220;6.920;2023-04-06T11:02:19;12.70;;;9.10;;
62832;SDS011;48891;49.220;6.920;2023-04-06T11:04:53;14.07;;;9.35;;
62832;SDS011;48891;49.220;6.920;2023-04-06T11:07:22;12.23;;;9.27;;
62832;SDS011;48891;49.220;6.920;2023-04-06T11:09:49;9.95;;;8.27;;
62832;SDS011;48891;49.220;6.920;2023-04-06T11:12:23;11.23;;;8.93;;
62832;SDS011;48891;49.220;6.920;2023-04-06T11:14:56;12.63;;;9.13;;
62832;SDS011;48891;49.220;6.920;2023-04-06T11:17:30;12.68;;;8.85;;
62832;SDS011;48891;49.220;6.920;2023-04-06T11:19:56;12.57;;;9.20;;
62832;SDS011;48891;49.220;6.920;2023-04-06T11:22:21;12.80;;;9.48;;
62832;SDS011;48891;49.220;6.920;2023-04-06T11:24:46;12.38;;;9.02;;
62832;SDS011;48891;49.220;6.920;2023-04-06T11:27:12;12.13;;;9.10;;
62832;SDS011;48891;49.220;6.920;2023-04-06T11:29:37;12.23;;;9.65;;
62832;SDS011;48891;49.220;6.920;2023-04-06T11:32:03;12.70;;;9.50;;
62832;SDS011;48891;49.220;6.920;2023-04-06T11:34:29;12.38;;;9.05;;
62832;SDS011;48891;49.220;6.920;2023-04-06T11:36:55;12.70;;;9.70;;
62832;SDS011;48891;49.220;6.920;2023-04-06T11:39:21;12.15;;;9.30;;
62832;SDS011;48891;49.220;6.920;2023-04-06T11:41:50;12.93;;;10.23;;
62832;SDS011;48891;49.220;6.920;2023-04-06T11:44:15;11.68;;;9.40;;
62832;SDS011;48891;49.220;6.920;2023-04-06T11:46:40;11.27;;;9.43;;
62832;SDS011;48891;49.220;6.920;2023-04-06T11:49:05;11.77;;;9.20;;
62832;SDS011;48891;49.220;6.920;2023-04-06T11:51:35;12.10;;;9.35;;
62832;SDS011;48891;49.220;6.920;2023-04-06T11:54:00;12.65;;;9.65;;
62832;SDS011;48891;49.220;6.920;2023-04-06T11:56:26;12.40;;;9.68;;
62832;SDS011;48891;49.220;6.920;2023-04-06T11:58:52;12.57;;;9.75;;
62832;SDS011;48891;49.220;6.920;2023-04-06T12:01:17;14.60;;;11.02;;
62832;SDS011;48891;49.220;6.920;2023-04-06T12:03:42;12.13;;;9.60;;
62832;SDS011;48891;49.220;6.920;2023-04-06T12:06:07;12.90;;;10.00;;
62832;SDS011;48891;49.220;6.920;2023-04-06T12:08:32;13.32;;;10.07;;
62832;SDS011;48891;49.220;6.920;2023-04-06T12:10:57;12.68;;;10.32;;
62832;SDS011;48891;49.220;6.920;2023-04-06T12:13:22;13.55;;;9.98;;
62832;SDS011;48891;49.220;6.920;2023-04-06T12:15:47;12.70;;;10.00;;
62832;SDS011;48891;49.220;6.920;2023-04-06T12:18:12;13.07;;;10.68;;
62832;SDS011;48891;49.220;6.920;2023-04-06T12:20:38;13.13;;;10.73;;
62832;SDS011;48891;49.220;6.920;2023-04-06T12:23:03;15.43;;;11.20;;
62832;SDS011;48891;49.220;6.920;2023-04-06T12:25:28;14.77;;;11.07;;
62832;SDS011;48891;49.220;6.920;2023-04-06T12:27:53;14.52;;;11.68;;
62832;SDS011;48891;49.220;6.920;2023-04-06T12:30:18;14.63;;;11.13;;
62832;SDS011;48891;49.220;6.920;2023-04-06T12:32:43;14.43;;;10.80;;
62832;SDS011;48891;49.220;6.920;2023-04-06T12:35:08;16.48;;;10.95;;
62832;SDS011;48891;49.220;6.920;2023-04-06T12:37:34;13.15;;;10.15;;
62832;SDS011;48891;49.220;6.920;2023-04-06T12:39:59;14.83;;;10.47;;
62832;SDS011;48891;49.220;6.920;2023-04-06T12:42:24;13.60;;;10.50;;
62832;SDS011;48891;49.220;6.920;2023-04-06T12:44:49;15.70;;;11.65;;
62832;SDS011;48891;49.220;6.920;2023-04-06T12:47:14;15.70;;;11.57;;
62832;SDS011;48891;49.220;6.920;2023-04-06T12:49:39;16.00;;;11.75;;
62832;SDS011;48891;49.220;6.920;2023-04-06T12:52:05;14.50;;;11.70;;
62832;SDS011;48891;49.220;6.920;2023-04-06T12:54:30;15.88;;;11.93;;
62832;SDS011;48891;49.220;6.920;2023-04-06T12:56:55;16.27;;;11.98;;
62832;SDS011;48891;49.220;6.920;2023-04-06T12:59:20;15.73;;;12.10;;
62832;SDS011;48891;49.220;6.920;2023-04-06T13:01:45;16.08;;;12.32;;
62832;SDS011;48891;49.220;6.920;2023-04-06T13:04:10;14.55;;;11.80;;
62832;SDS011;48891;49.220;6.920;2023-04-06T13:06:35;15.65;;;12.77;;
62832;SDS011;48891;49.220;6.920;2023-04-06T13:09:00;15.88;;;12.35;;
62832;SDS011;48891;49.220;6.920;2023-04-06T13:11:25;14.07;;;11.70;;
62832;SDS011;48891;49.220;6.920;2023-04-06T13:13:51;16.00;;;12.02;;
62832;SDS011;48891;49.220;6.920;2023-04-06T13:16:16;14.55;;;11.77;;
62832;SDS011;48891;49.220;6.920;2023-04-06T13:18:41;15.38;;;12.38;;
62832;SDS011;48891;49.220;6.920;2023-04-06T13:21:06;15.27;;;12.18;;
62832;SDS011;48891;49.220;6.920;2023-04-06T13:23:32;16.02;;;12.10;;
62832;SDS011;48891;49.220;6.920;2023-04-06T13:26:06;15.45;;;12.35;;
62832;SDS011;48891;49.220;6.920;2023-04-06T13:28:32;14.25;;;12.05;;
62832;SDS011;48891;49.220;6.920;2023-04-06T13:30:58;14.82;;;11.65;;
62832;SDS011;48891;49.220;6.920;2023-04-06T13:33:23;14.90;;;11.90;;
62832;SDS011;48891;49.220;6.920;2023-04-06T13:35:49;16.38;;;12.85;;
62832;SDS011;48891;49.220;6.920;2023-04-06T13:38:14;17.40;;;13.75;;
62832;SDS011;48891;49.220;6.920;2023-04-06T13:40:39;14.60;;;11.80;;
62832;SDS011;48891;49.220;6.920;2023-04-06T13:43:04;14.73;;;12.73;;
62832;SDS011;48891;49.220;6.920;2023-04-06T13:45:29;17.48;;;13.02;;
62832;SDS011;48891;49.220;6.920;2023-04-06T13:47:55;16.52;;;12.65;;
62832;SDS011;48891;49.220;6.920;2023-04-06T13:50:20;15.63;;;12.20;;
62832;SDS011;48891;49.220;6.920;2023-04-06T13:52:45;15.70;;;12.93;;
62832;SDS011;48891;49.220;6.920;2023-04-06T13:55:10;15.43;;;12.65;;
62832;SDS011;48891;49.220;6.920;2023-04-06T13:57:35;16.65;;;12.20;;
62832;SDS011;48891;49.220;6.920;2023-04-06T14:00:00;19.70;;;13.23;;
62832;SDS011;48891;49.220;6.920;2023-04-06T14:02:25;14.93;;;12.25;;
62832;SDS011;48891;49.220;6.920;2023-04-06T14:04:50;15.25;;;12.98;;
62832;SDS011;48891;49.220;6.920;2023-04-06T14:07:16;16.02;;;12.27;;
62832;SDS011;48891;49.220;6.920;2023-04-06T14:09:41;16.00;;;12.47;;
62832;SDS011;48891;49.220;6.920;2023-04-06T14:12:06;16.10;;;12.70;;
62832;SDS011;48891;49.220;6.920;2023-04-06T14:14:31;15.13;;;11.98;;
62832;SDS011;48891;49.220;6.920;2023-04-06T14:16:56;16.40;;;13.20;;
62832;SDS011;48891;49.220;6.920;2023-04-06T14:19:21;17.50;;;13.35;;
62832;SDS011;48891;49.220;6.920;2023-04-06T14:21:46;17.77;;;13.30;;
62832;SDS011;48891;49.220;6.920;2023-04-06T14:24:12;18.17;;;13.43;;
62832;SDS011;48891;49.220;6.920;2023-04-06T14:26:37;18.15;;;13.95;;